createdAt,value
2022-10-21T00:04:29.768Z,8.67
2022-10-21T00:09:50.336Z,8.62
2022-10-21T00:15:11.571Z,8.71
2022-10-21T00:20:34.736Z,8.81
2022-10-21T00:25:59.111Z,8.69
2022-10-21T00:31:19.789Z,8.69
2022-10-21T00:36:40.345Z,8.88
2022-10-21T00:42:01.068Z,8.84
2022-10-21T00:47:22.684Z,8.71
2022-10-21T00:52:43.699Z,8.79
2022-10-21T00:58:05.195Z,8.76
2022-10-21T01:03:28.342Z,8.72
2022-10-21T01:08:50.004Z,8.52
2022-10-21T01:14:22.671Z,8.56
2022-10-21T01:20:15.818Z,8.64
2022-10-21T01:26:05.951Z,8.48
2022-10-21T01:31:35.539Z,8.34
2022-10-21T01:37:18.976Z,8.49
2022-10-21T01:42:49.028Z,8.56
2022-10-21T01:48:16.711Z,8.45
2022-10-21T01:54:13.965Z,8.56
2022-10-21T01:59:35.604Z,8.57
2022-10-21T02:04:59.479Z,8.67
2022-10-21T02:10:20.991Z,8.75
2022-10-21T02:15:43.361Z,8.40
2022-10-21T02:21:13.301Z,8.26
2022-10-21T02:26:34.220Z,8.26
2022-10-21T02:31:57.760Z,8.36
2022-10-21T02:37:36.060Z,8.49
2022-10-21T02:43:06.729Z,8.52
2022-10-21T02:48:27.826Z,8.39
2022-10-21T02:53:48.795Z,8.22
2022-10-21T02:59:10.276Z,8.16
2022-10-21T03:04:30.629Z,8.26
2022-10-21T03:09:51.293Z,8.11
2022-10-21T03:15:11.813Z,8.08
2022-10-21T03:20:32.364Z,8.14
2022-10-21T03:25:53.157Z,8.18
2022-10-21T03:31:13.826Z,8.26
2022-10-21T03:36:34.532Z,8.10
2022-10-21T03:41:55.156Z,8.02
2022-10-21T03:47:15.738Z,7.99
2022-10-21T03:52:38.715Z,7.92
2022-10-21T03:57:59.586Z,7.98
2022-10-21T04:03:20.329Z,7.91
2022-10-21T04:08:40.805Z,7.73
2022-10-21T04:14:01.389Z,7.53
2022-10-21T04:19:21.821Z,7.47
2022-10-21T04:24:42.459Z,7.46
2022-10-21T04:30:03.065Z,7.51
2022-10-21T04:35:23.623Z,7.57
2022-10-21T04:40:44.154Z,7.63
2022-10-21T04:46:07.560Z,7.75
2022-10-21T04:56:56.284Z,7.86
2022-10-21T05:02:18.526Z,7.84
2022-10-21T05:07:41.316Z,7.80
2022-10-21T05:13:02.118Z,7.86
2022-10-21T05:18:22.804Z,8.01
2022-10-21T05:23:43.401Z,8.01
2022-10-21T05:29:04.085Z,7.96
2022-10-21T05:34:24.709Z,7.99
2022-10-21T05:39:45.286Z,8.01
2022-10-21T05:45:06.798Z,8.00
2022-10-21T05:50:27.608Z,8.05
2022-10-21T05:56:14.595Z,8.15
2022-10-21T06:01:35.328Z,8.24
2022-10-21T06:12:22.555Z,8.44
2022-10-21T06:17:43.592Z,8.92
2022-10-21T06:23:04.191Z,8.79
2022-10-21T06:28:25.398Z,8.75
2022-10-21T06:33:45.923Z,8.92
2022-10-21T06:39:07.857Z,8.80
2022-10-21T06:44:29.195Z,8.86
2022-10-21T06:49:49.955Z,8.81
2022-10-21T06:55:11.954Z,8.90
2022-10-21T07:00:32.868Z,8.67
2022-10-21T07:06:00.495Z,8.68
2022-10-21T07:11:22.231Z,8.59
2022-10-21T07:16:43.112Z,8.56
2022-10-21T07:22:03.808Z,8.68
2022-10-21T07:27:24.548Z,8.77
2022-10-21T07:32:45.312Z,8.91
2022-10-21T07:38:06.284Z,8.92
2022-10-21T07:43:27.176Z,9.09
2022-10-21T07:48:48.736Z,9.28
2022-10-21T07:54:09.763Z,9.37
2022-10-21T07:59:30.753Z,9.34
2022-10-21T08:04:54.864Z,9.97
2022-10-21T08:10:16.411Z,9.98
2022-10-21T08:15:42.659Z,9.96
2022-10-21T08:21:04.914Z,9.95
2022-10-21T08:26:25.844Z,10.10
2022-10-21T08:31:48.534Z,10.30
2022-10-21T08:37:09.518Z,10.20
2022-10-21T08:42:30.356Z,10.21
2022-10-21T08:47:55.224Z,10.29
2022-10-21T08:53:24.663Z,10.42
2022-10-21T08:58:48.351Z,10.54
2022-10-21T09:04:31.993Z,10.64
2022-10-21T09:09:59.463Z,10.57
2022-10-21T09:15:39.978Z,10.61
2022-10-21T09:21:21.445Z,10.74
2022-10-21T09:26:51.201Z,10.91
2022-10-21T09:32:12.153Z,10.94
2022-10-21T09:37:35.411Z,10.90
2022-10-21T09:43:02.177Z,10.91
2022-10-21T09:49:06.918Z,10.90
2022-10-21T09:54:26.647Z,10.98
2022-10-21T09:59:51.908Z,11.03
2022-10-21T10:05:40.597Z,11.02
2022-10-21T10:11:03.640Z,11.57
2022-10-21T10:16:29.716Z,11.81
2022-10-21T10:22:12.258Z,11.65
2022-10-21T10:27:33.231Z,11.59
2022-10-21T10:32:56.361Z,11.40
2022-10-21T10:38:37.971Z,11.34
2022-10-21T10:43:58.543Z,11.42
2022-10-21T10:49:22.545Z,11.47
2022-10-21T10:54:44.017Z,11.42
2022-10-21T11:00:18.155Z,11.43
2022-10-21T11:05:52.049Z,11.55
2022-10-21T11:11:41.612Z,11.65
2022-10-21T11:17:13.401Z,11.73
2022-10-21T11:22:53.029Z,11.82
2022-10-21T11:28:26.140Z,11.87
2022-10-21T11:34:13.468Z,11.91
2022-10-21T11:39:55.063Z,12.03
2022-10-21T11:45:15.962Z,11.98
2022-10-21T11:50:53.262Z,12.04
2022-10-21T11:56:49.207Z,12.02
2022-10-21T12:02:25.296Z,12.15
2022-10-21T12:08:05.683Z,12.06
2022-10-21T12:13:29.912Z,12.08
2022-10-21T12:18:54.187Z,11.94
2022-10-21T12:24:39.211Z,12.07
2022-10-21T12:30:05.671Z,12.12
2022-10-21T12:35:40.424Z,12.13
2022-10-21T12:41:40.580Z,12.07
2022-10-21T12:47:04.641Z,12.02
2022-10-21T12:52:25.552Z,12.03
2022-10-21T12:57:46.726Z,11.92
2022-10-21T13:03:22.191Z,11.81
2022-10-21T13:08:55.362Z,11.92
2022-10-21T13:14:16.123Z,12.27
2022-10-21T13:19:37.036Z,12.11
2022-10-21T13:24:57.715Z,11.97
2022-10-21T13:30:29.314Z,11.81
2022-10-21T13:36:00.583Z,11.64
2022-10-21T13:41:30.923Z,11.52
2022-10-21T13:46:51.770Z,11.41
2022-10-21T13:52:13.240Z,11.34
2022-10-21T13:57:36.195Z,11.35
2022-10-21T14:03:02.452Z,11.39
2022-10-21T14:08:26.420Z,11.19
2022-10-21T14:13:49.292Z,11.13
2022-10-21T14:19:18.399Z,11.24
2022-10-21T14:24:47.053Z,11.33
2022-10-21T14:30:10.215Z,11.54
2022-10-21T14:35:32.043Z,11.43
2022-10-21T14:41:05.569Z,11.40
2022-10-21T14:46:26.481Z,11.35
2022-10-21T14:51:47.189Z,11.33
2022-10-21T14:57:21.762Z,11.29
2022-10-21T15:02:43.518Z,11.25
2022-10-21T15:08:19.871Z,11.13
2022-10-21T15:13:59.294Z,11.03
2022-10-21T15:19:50.749Z,10.99
2022-10-21T15:25:19.440Z,10.89
2022-10-21T15:30:42.229Z,10.81
2022-10-21T15:36:05.581Z,11.32
2022-10-21T15:41:28.732Z,12.00
2022-10-21T15:46:50.832Z,12.68
2022-10-21T15:52:13.342Z,12.85
2022-10-21T15:57:34.377Z,11.92
2022-10-21T16:02:55.020Z,11.38
2022-10-21T16:08:15.925Z,11.04
2022-10-21T16:13:36.555Z,10.80
2022-10-21T16:18:57.432Z,10.61
2022-10-21T16:24:18.276Z,10.49
2022-10-21T16:29:39.813Z,10.41
2022-10-21T16:35:00.674Z,10.35
2022-10-21T16:40:25.454Z,10.28
2022-10-21T16:45:46.131Z,10.19
2022-10-21T16:51:07.260Z,10.18
2022-10-21T17:01:53.770Z,10.07
2022-10-21T17:07:14.381Z,10.02
2022-10-21T17:12:37.641Z,10.06
2022-10-21T17:17:59.284Z,10.20
2022-10-21T17:23:20.114Z,10.28
2022-10-21T17:28:40.749Z,10.26
2022-10-21T17:34:07.487Z,10.20
2022-10-21T17:39:28.596Z,10.33
2022-10-21T17:44:49.663Z,10.46
2022-10-21T17:50:11.075Z,10.61
2022-10-21T17:55:32.229Z,10.67
2022-10-21T18:00:56.674Z,10.73
2022-10-21T18:06:17.952Z,10.76
2022-10-21T18:11:38.568Z,10.60
2022-10-21T18:16:59.148Z,10.48
2022-10-21T18:22:21.226Z,10.12
2022-10-21T18:27:42.149Z,10.11
2022-10-21T18:33:02.737Z,10.01
2022-10-21T18:38:24.545Z,9.82
2022-10-21T18:43:47.925Z,9.70
2022-10-21T18:49:12.635Z,9.64
2022-10-21T18:54:33.240Z,9.61
2022-10-21T18:59:54.605Z,9.57
2022-10-21T19:05:15.415Z,9.46
2022-10-21T19:10:36.187Z,9.36
2022-10-21T19:15:56.791Z,9.31
2022-10-21T19:21:19.132Z,9.29
2022-10-21T19:26:41.549Z,9.34
2022-10-21T19:32:02.440Z,9.30
2022-10-21T19:37:23.049Z,9.26
2022-10-21T19:42:43.557Z,9.26
2022-10-21T19:48:04.350Z,9.28
2022-10-21T19:53:26.814Z,9.43
2022-10-21T19:58:47.593Z,9.39
2022-10-21T20:04:08.238Z,9.40
2022-10-21T20:09:28.979Z,9.35
2022-10-21T20:14:49.608Z,9.36
2022-10-21T20:20:10.386Z,9.43
2022-10-21T20:25:31.161Z,9.44
2022-10-21T20:30:56.331Z,9.51
2022-10-21T20:36:23.679Z,9.51
2022-10-21T20:41:44.753Z,9.44
2022-10-21T20:47:05.451Z,9.44
2022-10-21T20:52:26.446Z,9.53
2022-10-21T20:57:47.328Z,9.56
2022-10-21T21:03:07.937Z,9.57
2022-10-21T21:08:29.730Z,9.64
2022-10-21T21:13:50.543Z,9.70
2022-10-21T21:19:13.170Z,9.71
2022-10-21T21:24:34.060Z,9.71
2022-10-21T21:29:54.728Z,9.70
2022-10-21T21:35:17.675Z,9.69
2022-10-21T21:40:38.626Z,9.58
2022-10-21T21:46:00.047Z,9.66
2022-10-21T21:51:21.722Z,9.82
2022-10-21T21:56:42.352Z,9.88
2022-10-21T22:02:03.540Z,9.89
2022-10-21T22:07:24.190Z,9.73
2022-10-21T22:12:45.525Z,9.77
2022-10-21T22:18:07.002Z,9.67
2022-10-21T22:23:28.514Z,9.66
2022-10-21T22:28:49.639Z,9.63
2022-10-21T22:34:12.053Z,9.47
2022-10-21T22:39:32.921Z,9.37
2022-10-21T22:44:53.590Z,9.44
2022-10-21T22:50:14.175Z,9.46
2022-10-21T22:55:34.994Z,9.44
2022-10-21T23:06:21.179Z,9.36
2022-10-21T23:11:41.933Z,9.34
2022-10-21T23:17:02.597Z,9.24
2022-10-21T23:22:23.482Z,9.22
2022-10-21T23:27:44.187Z,9.27
2022-10-21T23:33:04.876Z,9.25
2022-10-21T23:38:25.629Z,9.17
2022-10-21T23:43:46.207Z,9.19
2022-10-21T23:49:06.974Z,9.26
2022-10-21T23:54:27.917Z,9.41
2022-10-21T23:59:48.440Z,9.48
